Time;durP1;ratioP1;P1;durP2;ratioP2;P2;SDS_P1;SDS_P2;PMS_P1;PMS_P2;Temp;Humidity;BMP_temperature;BMP_pressure;BME280_temperature;BME280_humidity;BME280_pressure;Samples;Min_cycle;Max_cycle;Signal;HPM_P1;HPM_P2
2021/03/02 00:02:40;;;;;;;1999.90;999.90;;;5.10;99.90;;;;;;6040486;23;20090;-95
2021/03/02 00:05:08;;;;;;;1999.90;999.90;;;5.00;99.90;;;;;;6039747;23;20038;-95
2021/03/02 00:07:36;;;;;;;1999.90;999.90;;;5.00;99.90;;;;;;6039578;23;20485;-96
2021/03/02 00:10:06;;;;;;;1999.90;999.90;;;5.00;99.90;;;;;;6040293;23;20172;-95
2021/03/02 00:12:37;;;;;;;1999.90;999.90;;;5.00;99.90;;;;;;6039881;23;20583;-96
2021/03/02 00:15:08;;;;;;;1999.90;999.90;;;5.00;99.90;;;;;;6040175;23;20106;-95
2021/03/02 00:17:37;;;;;;;1999.90;999.90;;;5.00;99.90;;;;;;6039624;23;20350;-95
2021/03/02 00:20:11;;;;;;;1999.90;999.90;;;4.90;99.90;;;;;;6039794;23;20023;-96
2021/03/02 00:22:49;;;;;;;1999.90;999.90;;;4.90;99.90;;;;;;6068081;23;20044;-95
2021/03/02 00:25:53;;;;;;;1999.90;999.90;;;4.90;99.90;;;;;;6218292;23;20040;-96
2021/03/02 00:28:22;;;;;;;1999.90;999.90;;;4.90;99.90;;;;;;6227391;23;20028;-96
2021/03/02 00:30:50;;;;;;;1999.90;999.90;;;4.90;99.90;;;;;;6248557;23;20023;-95
2021/03/02 00:33:18;;;;;;;1999.90;999.90;;;4.80;99.90;;;;;;6248131;23;20095;-95
2021/03/02 00:35:46;;;;;;;1999.90;999.90;;;4.90;99.90;;;;;;6248044;23;20016;-95
2021/03/02 00:38:14;;;;;;;1999.90;999.90;;;4.90;99.90;;;;;;6248313;23;20016;-96
2021/03/02 00:40:41;;;;;;;1999.90;999.90;;;4.90;99.90;;;;;;6249117;23;20424;-95
2021/03/02 00:43:10;;;;;;;1999.90;999.90;;;4.80;99.90;;;;;;6248349;23;20058;-94
2021/03/02 00:45:37;;;;;;;1999.90;999.90;;;4.80;99.90;;;;;;6249721;23;20371;-96
2021/03/02 00:48:06;;;;;;;1999.90;999.90;;;4.80;99.90;;;;;;6251446;23;20020;-96
2021/03/02 00:50:34;;;;;;;1999.90;999.90;;;4.70;99.90;;;;;;6251295;23;20027;-96
2021/03/02 00:53:04;;;;;;;1999.90;999.90;;;4.80;99.90;;;;;;6251195;23;20016;-96
2021/03/02 00:55:32;;;;;;;1999.90;999.90;;;4.70;99.90;;;;;;6252724;23;20354;-95
2021/03/02 00:58:00;;;;;;;1999.90;999.90;;;4.70;99.90;;;;;;6254017;23;20040;-96
2021/03/02 01:00:29;;;;;;;1999.90;999.90;;;4.80;99.90;;;;;;6252342;23;20028;-96
2021/03/02 01:02:56;;;;;;;1999.90;999.90;;;4.70;99.90;;;;;;6253580;23;20331;-96
2021/03/02 01:05:24;;;;;;;1999.90;999.90;;;4.70;99.90;;;;;;6253628;23;20020;-94
2021/03/02 01:07:51;;;;;;;1999.90;999.90;;;4.70;99.90;;;;;;6252995;23;20515;-96
2021/03/02 01:10:20;;;;;;;1999.90;999.90;;;4.70;99.90;;;;;;6252120;23;20017;-96
2021/03/02 01:13:07;;;;;;;1999.90;999.90;;;4.70;99.90;;;;;;6251746;23;20182;-95
2021/03/02 01:15:36;;;;;;;1999.90;999.90;;;4.70;99.90;;;;;;6253503;23;20077;-95
2021/03/02 01:18:04;;;;;;;1999.90;999.90;;;4.70;99.90;;;;;;6254214;23;20453;-96
2021/03/02 01:20:31;;;;;;;1999.90;999.90;;;4.70;99.90;;;;;;6254751;23;20099;-95
2021/03/02 01:22:59;;;;;;;1999.90;999.90;;;4.60;99.90;;;;;;6255282;23;20013;-95
2021/03/02 01:33:23;;;;;;;1999.90;999.90;;;4.50;99.90;;;;;;6121130;23;20061;-95
2021/03/02 01:35:51;;;;;;;1999.90;999.90;;;4.50;99.90;;;;;;6162314;23;20022;-95
2021/03/02 01:38:18;;;;;;;1999.90;999.90;;;4.50;99.90;;;;;;6161240;23;20505;-96
2021/03/02 01:40:46;;;;;;;1999.90;999.90;;;4.40;99.90;;;;;;6161532;23;20029;-95
2021/03/02 01:47:52;;;;;;;1999.90;999.90;;;4.50;99.90;;;;;;6160879;23;20053;-95
2021/03/02 01:50:23;;;;;;;1999.90;999.90;;;4.50;99.90;;;;;;6160488;23;20018;-95
2021/03/02 01:52:51;;;;;;;1999.90;999.90;;;4.40;99.90;;;;;;6160658;23;20021;-95
2021/03/02 01:55:18;;;;;;;1999.90;999.90;;;4.40;99.90;;;;;;6160357;23;20076;-96
2021/03/02 01:58:43;;;;;;;1999.90;999.90;;;4.40;99.90;;;;;;6043301;23;20024;-96
2021/03/02 02:01:18;;;;;;;1999.90;999.90;;;4.40;99.90;;;;;;6043627;23;20023;-95
2021/03/02 02:03:53;;;;;;;1999.90;999.90;;;4.40;99.90;;;;;;5999593;23;20052;-96
2021/03/02 02:06:29;;;;;;;1999.90;999.90;;;4.30;99.90;;;;;;6203534;23;20439;-96
2021/03/02 02:09:05;;;;;;;1999.90;999.90;;;4.30;99.90;;;;;;6258167;23;20020;-96
2021/03/02 02:11:45;;;;;;;1999.90;999.90;;;4.30;99.90;;;;;;6258086;23;20020;-96
2021/03/02 02:14:21;;;;;;;1999.90;999.90;;;4.20;99.90;;;;;;6255483;23;20016;-96
2021/03/02 02:16:55;;;;;;;1999.90;999.90;;;4.30;99.90;;;;;;6253494;23;20027;-95
2021/03/02 02:19:50;;;;;;;1999.90;999.90;;;4.30;99.90;;;;;;6255894;23;20020;-95
2021/03/02 02:22:44;;;;;;;1999.90;999.90;;;4.20;99.90;;;;;;6181179;23;20044;-95
2021/03/02 02:29:13;;;;;;;1999.90;999.90;;;4.20;99.90;;;;;;6049902;23;20034;-94
2021/03/02 02:31:43;;;;;;;1999.90;999.90;;;4.20;99.90;;;;;;6248988;23;20094;-95
2021/03/02 02:34:15;;;;;;;1999.90;999.90;;;4.20;99.90;;;;;;6248957;23;20038;-95
2021/03/02 02:36:46;;;;;;;1999.90;999.90;;;4.20;99.90;;;;;;6249817;23;20501;-95
2021/03/02 02:43:54;;;;;;;1999.90;999.90;;;4.20;99.90;;;;;;6040276;23;20034;-93
2021/03/02 02:46:24;;;;;;;1999.90;999.90;;;4.20;99.90;;;;;;6185202;23;20346;-94
2021/03/02 02:48:53;;;;;;;1999.90;999.90;;;4.20;99.90;;;;;;6249669;23;20035;-94
2021/03/02 02:51:20;;;;;;;1999.90;999.90;;;4.20;99.90;;;;;;6248758;23;20019;-95
2021/03/02 02:53:47;;;;;;;1999.90;999.90;;;4.10;99.90;;;;;;6248846;23;20019;-93
2021/03/02 02:56:43;;;;;;;1999.90;999.90;;;4.10;99.90;;;;;;6248490;23;20070;-93
2021/03/02 03:03:49;;;;;;;1999.90;999.90;;;4.00;99.90;;;;;;6127687;23;20029;-94
2021/03/02 03:06:20;;;;;;;1999.90;999.90;;;4.00;99.90;;;;;;6163060;23;20020;-94
2021/03/02 03:08:51;;;;;;;1999.90;999.90;;;4.00;99.90;;;;;;6249149;23;20054;-94
2021/03/02 03:11:22;;;;;;;1999.90;999.90;;;4.00;99.90;;;;;;6249142;23;20024;-94
2021/03/02 03:13:51;;;;;;;1999.90;999.90;;;4.00;99.90;;;;;;6248542;23;20012;-95
2021/03/02 03:16:23;;;;;;;1999.90;999.90;;;4.00;99.90;;;;;;6248621;23;20090;-94
2021/03/02 03:18:52;;;;;;;1999.90;999.90;;;4.00;99.90;;;;;;6248793;23;20016;-93
2021/03/02 03:21:21;;;;;;;1999.90;999.90;;;3.90;99.90;;;;;;6249000;23;20019;-94
2021/03/02 03:23:50;;;;;;;1999.90;999.90;;;3.90;99.90;;;;;;6248272;23;20023;-93
2021/03/02 03:26:21;;;;;;;1999.90;999.90;;;3.90;99.90;;;;;;6248982;23;20099;-94
2021/03/02 03:28:50;;;;;;;1999.90;999.90;;;3.90;99.90;;;;;;6248082;23;20024;-94
2021/03/02 03:31:18;;;;;;;1999.90;999.90;;;3.90;99.90;;;;;;6248781;23;20325;-94
2021/03/02 03:33:47;;;;;;;1999.90;999.90;;;3.90;99.90;;;;;;6249233;23;20054;-95
2021/03/02 03:36:15;;;;;;;1999.90;999.90;;;3.90;99.90;;;;;;6248597;23;20471;-94
2021/03/02 03:38:43;;;;;;;1999.90;999.90;;;3.80;99.90;;;;;;6248574;23;20020;-94
2021/03/02 03:41:11;;;;;;;1999.90;999.90;;;3.80;99.90;;;;;;6248789;23;20053;-94
2021/03/02 03:43:38;;;;;;;1999.90;999.90;;;3.80;99.90;;;;;;6249272;23;20020;-94
2021/03/02 03:46:06;;;;;;;1999.90;999.90;;;3.80;99.90;;;;;;6249410;23;20027;-94
2021/03/02 03:48:34;;;;;;;1999.90;999.90;;;3.80;99.90;;;;;;6248725;23;20024;-93
2021/03/02 03:51:03;;;;;;;1999.90;999.90;;;3.70;99.90;;;;;;6249410;23;20040;-94
2021/03/02 03:53:35;;;;;;;1999.90;999.90;;;3.70;99.90;;;;;;6251903;23;20012;-94
2021/03/02 03:56:06;;;;;;;1999.90;999.90;;;3.70;99.90;;;;;;6251033;23;20024;-94
2021/03/02 03:58:36;;;;;;;1999.90;999.90;;;3.70;99.90;;;;;;6253117;23;20518;-94
2021/03/02 04:01:05;;;;;;;1999.90;999.90;;;3.70;99.90;;;;;;6255440;23;20020;-94
2021/03/02 04:03:34;;;;;;;1999.90;999.90;;;3.70;99.90;;;;;;6254754;23;20031;-94
2021/03/02 04:09:36;;;;;;;1999.90;999.90;;;3.60;99.90;;;;;;6134217;23;20037;-94
2021/03/02 04:12:08;;;;;;;1999.90;999.90;;;3.60;99.90;;;;;;6163855;23;20020;-95
2021/03/02 04:14:36;;;;;;;1999.90;999.90;;;3.60;99.90;;;;;;6252028;23;20054;-94
2021/03/02 04:17:05;;;;;;;1999.90;999.90;;;3.50;99.90;;;;;;6251998;23;20016;-94
2021/03/02 04:19:32;;;;;;;1999.90;999.90;;;3.60;99.90;;;;;;6252090;23;20024;-94
2021/03/02 04:21:59;;;;;;;1999.90;999.90;;;3.60;99.90;;;;;;6251902;23;20031;-95
2021/03/02 04:24:29;;;;;;;1999.90;999.90;;;3.60;99.90;;;;;;6250610;23;20020;-95
2021/03/02 04:26:57;;;;;;;1999.90;999.90;;;3.60;99.90;;;;;;6250972;23;20039;-94
2021/03/02 04:29:25;;;;;;;1999.90;999.90;;;3.60;99.90;;;;;;6247787;23;20466;-94
2021/03/02 04:31:53;;;;;;;1999.90;999.90;;;3.60;99.90;;;;;;6248278;23;20024;-94
2021/03/02 04:34:20;;;;;;;1999.90;999.90;;;3.60;99.90;;;;;;6248844;23;20023;-96
2021/03/02 04:36:48;;;;;;;1999.90;999.90;;;3.60;99.90;;;;;;6247657;23;20020;-96
2021/03/02 04:39:15;;;;;;;1999.90;999.90;;;3.60;99.90;;;;;;6247816;23;20023;-95
2021/03/02 04:41:42;;;;;;;1999.90;999.90;;;3.60;99.90;;;;;;6248562;23;20016;-95
2021/03/02 04:44:10;;;;;;;1999.90;999.90;;;3.60;99.90;;;;;;6247885;23;20036;-94
2021/03/02 04:46:38;;;;;;;1999.90;999.90;;;3.50;99.90;;;;;;6247169;23;20043;-94
2021/03/02 04:49:05;;;;;;;1999.90;999.90;;;3.60;99.90;;;;;;6247767;23;20466;-95
2021/03/02 04:51:32;;;;;;;1999.90;999.90;;;3.50;99.90;;;;;;6248031;23;20047;-95
2021/03/02 04:53:59;;;;;;;1999.90;999.90;;;3.50;99.90;;;;;;6248053;23;20127;-94
2021/03/02 04:56:27;;;;;;;1999.90;999.90;;;3.50;99.90;;;;;;6248339;23;20042;-94
2021/03/02 04:58:54;;;;;;;1999.90;999.90;;;3.50;99.90;;;;;;6247251;23;20350;-95
2021/03/02 05:01:21;;;;;;;1999.90;999.90;;;3.40;99.90;;;;;;6247782;23;20035;-94
2021/03/02 05:03:50;;;;;;;1999.90;999.90;;;3.40;99.90;;;;;;6247373;23;20035;-94
2021/03/02 05:06:17;;;;;;;1999.90;999.90;;;3.40;99.90;;;;;;6248107;23;20320;-94
2021/03/02 05:08:45;;;;;;;1999.90;999.90;;;3.30;99.90;;;;;;6247690;23;20022;-95
2021/03/02 05:11:12;;;;;;;1999.90;999.90;;;3.30;99.90;;;;;;6248228;23;20020;-94
2021/03/02 05:13:39;;;;;;;1999.90;999.90;;;3.30;99.90;;;;;;6248686;23;20016;-95
2021/03/02 05:16:11;;;;;;;1999.90;999.90;;;3.30;99.90;;;;;;6248462;23;20016;-93
2021/03/02 05:18:39;;;;;;;1999.90;999.90;;;3.30;99.90;;;;;;6248968;23;20024;-95
2021/03/02 05:21:07;;;;;;;1999.90;999.90;;;3.30;99.90;;;;;;6247777;23;20477;-94
2021/03/02 05:23:35;;;;;;;1999.90;999.90;;;3.30;99.90;;;;;;6247648;23;20048;-94
2021/03/02 05:26:03;;;;;;;1999.90;999.90;;;3.30;99.90;;;;;;6248807;23;20020;-95
2021/03/02 05:28:30;;;;;;;1999.90;999.90;;;3.20;99.90;;;;;;6251818;23;20036;-95
2021/03/02 05:30:58;;;;;;;1999.90;999.90;;;3.20;99.90;;;;;;6251457;23;20022;-95
2021/03/02 05:33:25;;;;;;;1999.90;999.90;;;3.20;99.90;;;;;;6250783;23;20017;-95
2021/03/02 05:35:53;;;;;;;1999.90;999.90;;;3.20;99.90;;;;;;6249354;23;20095;-95
2021/03/02 05:38:21;;;;;;;1999.90;999.90;;;3.20;99.90;;;;;;6251759;23;20020;-96
2021/03/02 05:40:48;;;;;;;1999.90;999.90;;;3.10;99.90;;;;;;6250645;23;20020;-96
2021/03/02 05:43:18;;;;;;;1999.90;999.90;;;3.10;99.90;;;;;;6249671;23;20013;-95
2021/03/02 05:45:49;;;;;;;1999.90;999.90;;;3.10;99.90;;;;;;6249475;23;20024;-95
2021/03/02 05:48:30;;;;;;;;;;;;;;;;;;;;;
2021/03/02 06:06:57;;;;;;;1999.90;999.90;;;2.90;99.90;;;;;;5959468;23;20055;-95
2021/03/02 06:09:31;;;;;;;1999.90;999.90;;;2.90;99.90;;;;;;5956952;24;20121;-95
2021/03/02 06:20:46;;;;;;;1999.90;999.90;;;2.70;99.90;;;;;;5851771;24;20042;-96
2021/03/02 06:31:59;;;;;;;1999.90;999.90;;;2.70;99.90;;;;;;5820366;24;20461;-96
2021/03/02 06:46:46;;;;;;;1999.90;999.90;;;2.60;99.90;;;;;;6097260;23;20092;-96
2021/03/02 06:53:09;;;;;;;1999.90;999.90;;;2.60;99.90;;;;;;6185908;23;20013;-94
2021/03/02 06:55:37;;;;;;;1999.90;999.90;;;2.60;99.90;;;;;;6186650;23;20021;-93
2021/03/02 06:58:23;;;;;;;1999.90;999.90;;;2.60;99.90;;;;;;6188452;23;20017;-94
2021/03/02 07:00:52;;;;;;;1999.90;999.90;;;2.60;99.90;;;;;;6189092;23;20368;-93
2021/03/02 07:07:10;;;;;;;1999.90;999.90;;;2.50;99.90;;;;;;6092133;23;20022;-94
2021/03/02 07:10:08;;;;;;;1999.90;999.90;;;2.50;99.90;;;;;;6113855;23;20024;-94
2021/03/02 07:23:40;;;;;;;1999.90;999.90;;;2.50;99.90;;;;;;6131391;23;20017;-93
2021/03/02 07:30:10;;;;;;;1999.90;999.90;;;2.60;99.90;;;;;;6122989;23;20065;-94
2021/03/02 07:32:41;;;;;;;1999.90;999.90;;;2.60;99.90;;;;;;6130822;23;20018;-95
2021/03/02 07:35:20;;;;;;;1999.90;999.90;;;2.60;99.90;;;;;;6127150;23;20049;-94
2021/03/02 07:41:39;;;;;;;1999.90;999.90;;;2.70;99.90;;;;;;6218596;23;20033;-95
2021/03/02 07:47:57;;;;;;;1999.90;999.90;;;2.70;99.90;;;;;;6149990;23;20069;-96
2021/03/02 07:50:35;;;;;;;1999.90;999.90;;;2.80;99.90;;;;;;6217519;23;20039;-95
2021/03/02 07:53:22;;;;;;;1999.90;999.90;;;2.80;99.90;;;;;;6217674;23;20017;-94
2021/03/02 07:56:27;;;;;;;1999.90;999.90;;;2.80;99.90;;;;;;6220201;23;20024;-95
2021/03/02 08:03:28;;;;;;;1999.90;999.90;;;2.90;99.90;;;;;;6132038;23;20041;-96
2021/03/02 08:06:50;;;;;;;1999.90;999.90;;;2.90;99.90;;;;;;6116538;23;20235;-95
2021/03/02 08:09:41;;;;;;;1999.90;999.90;;;2.90;99.90;;;;;;6101764;23;20346;-96
2021/03/02 08:12:40;;;;;;;1999.90;999.90;;;3.00;99.90;;;;;;6126524;23;20022;-95
2021/03/02 08:20:22;;;;;;;1999.90;999.90;;;3.10;99.90;;;;;;5923052;24;20032;-96
2021/03/02 08:22:57;;;;;;;1999.90;999.90;;;3.20;99.90;;;;;;5890579;24;20017;-96
2021/03/02 08:25:29;;;;;;;1999.90;999.90;;;3.20;99.90;;;;;;5933463;24;20100;-96
2021/03/02 08:31:17;;;;;;;1999.90;999.90;;;3.20;99.90;;;;;;5934244;24;20032;-96
2021/03/02 08:33:47;;;;;;;1999.90;999.90;;;3.30;99.90;;;;;;6008728;23;20019;-95
2021/03/02 08:36:17;;;;;;;1999.90;999.90;;;3.30;99.90;;;;;;6049436;23;20057;-95
2021/03/02 08:38:45;;;;;;;1999.90;999.90;;;3.40;99.90;;;;;;6096870;23;20097;-95
2021/03/02 08:41:13;;;;;;;1999.90;999.90;;;3.40;99.90;;;;;;6098517;23;20094;-95
2021/03/02 08:43:40;;;;;;;1999.90;999.90;;;3.50;99.90;;;;;;6102711;23;20018;-96
2021/03/02 08:46:08;;;;;;;1999.90;999.90;;;3.60;99.90;;;;;;6155707;23;20027;-94
2021/03/02 08:48:42;;;;;;;;;;;3.60;99.90;;;;;;6221069;23;20088;-95
2021/03/02 08:51:12;;;;;;;1999.90;999.90;;;3.70;99.90;;;;;;6221854;23;19916;-95
2021/03/02 09:01:09;;;;;;;1999.90;999.90;;;3.80;99.90;;;;;;6102830;23;20537;-96
2021/03/02 09:08:09;;;;;;;1999.90;999.90;;;4.00;99.90;;;;;;6054178;23;20063;-96
2021/03/02 09:10:36;;;;;;;1999.90;999.90;;;4.10;99.90;;;;;;6065284;23;20080;-96
2021/03/02 09:13:17;;;;;;;1999.90;999.90;;;4.20;99.90;;;;;;6159751;23;20014;-96
2021/03/02 09:15:48;;;;;;;1999.90;999.90;;;4.20;99.90;;;;;;6170854;23;20078;-96
2021/03/02 09:21:16;;;;;;;1999.90;999.90;;;4.30;99.90;;;;;;6230780;23;20027;-96
2021/03/02 09:23:44;;;;;;;1999.90;999.90;;;4.40;99.90;;;;;;6221619;23;20021;-95
2021/03/02 09:29:45;;;;;;;1999.90;999.90;;;4.60;99.90;;;;;;6221356;23;20017;-96
2021/03/02 09:43:19;;;;;;;1999.90;999.90;;;5.10;99.90;;;;;;6230304;23;20019;-95
2021/03/02 09:45:54;;;;;;;1999.90;999.90;;;5.20;99.90;;;;;;6220636;23;20017;-96
2021/03/02 09:48:42;;;;;;;1999.90;999.90;;;5.30;99.90;;;;;;6224087;23;20027;-96
2021/03/02 09:51:33;;;;;;;1999.90;999.90;;;5.50;99.90;;;;;;6222796;23;20047;-96
2021/03/02 09:57:45;;;;;;;;;;;5.70;99.90;;;;;;5990288;24;20034;-96
2021/03/02 10:00:17;;;;;;;1999.90;999.90;;;5.80;99.90;;;;;;6012948;23;19924;-96
2021/03/02 10:02:55;;;;;;;1999.90;999.90;;;5.90;99.90;;;;;;6111348;23;20018;-96
2021/03/02 10:15:41;;;;;;;1999.90;999.90;;;6.50;99.90;;;;;;6067255;23;20088;-96
2021/03/02 10:18:35;;;;;;;1999.90;999.90;;;6.60;99.90;;;;;;6083443;23;20062;-96
2021/03/02 10:21:25;;;;;;;1999.90;999.90;;;6.70;99.90;;;;;;6002326;24;20048;-96
2021/03/02 10:24:01;;;;;;;1999.90;999.90;;;6.80;99.90;;;;;;5999070;23;20055;-96
2021/03/02 10:37:46;;;;;;;1999.90;999.90;;;7.30;99.90;;;;;;6000838;24;20080;-96
2021/03/02 10:40:33;;;;;;;1999.90;999.90;;;7.40;99.90;;;;;;6071339;23;20022;-96
2021/03/02 10:43:03;;;;;;;1999.90;999.90;;;7.40;99.90;;;;;;6088401;23;20019;-96
2021/03/02 10:45:33;;;;;;;1999.90;999.90;;;7.50;99.90;;;;;;6080091;23;20078;-96
2021/03/02 10:48:05;;;;;;;1999.90;999.90;;;7.60;99.90;;;;;;6083008;23;20022;-96
2021/03/02 10:50:38;;;;;;;1999.90;999.90;;;7.70;99.90;;;;;;6212259;23;20024;-96
2021/03/02 10:53:18;;;;;;;1999.90;999.90;;;7.80;99.90;;;;;;6238009;23;20005;-96
2021/03/02 10:58:55;;;;;;;1999.90;999.90;;;7.90;99.90;;;;;;6236927;23;20043;-96
2021/03/02 11:01:24;;;;;;;1999.90;999.90;;;8.00;99.90;;;;;;6226290;23;20097;-95
2021/03/02 11:45:41;;;;;;;1999.90;999.90;;;9.50;99.90;;;;;;6161674;23;20036;-96
2021/03/02 11:48:19;;;;;;;1999.90;999.90;;;9.60;99.90;;;;;;6173692;23;20021;-96
2021/03/02 11:54:44;;;;;;;1999.90;999.90;;;9.90;99.90;;;;;;6174359;23;20041;-96
2021/03/02 11:57:24;;;;;;;1999.90;999.90;;;9.90;99.90;;;;;;6173132;23;20025;-96
2021/03/02 12:00:02;;;;;;;1999.90;999.90;;;10.00;99.90;;;;;;6174115;23;20072;-96
2021/03/02 12:03:10;;;;;;;1999.90;999.90;;;10.10;99.90;;;;;;6173788;23;20022;-96
2021/03/02 12:05:57;;;;;;;1999.90;999.90;;;10.10;99.90;;;;;;6114150;23;20030;-96
2021/03/02 12:08:43;;;;;;;1999.90;999.90;;;10.20;99.90;;;;;;6079049;23;20033;-96
2021/03/02 12:11:23;;;;;;;1999.90;999.90;;;10.30;99.90;;;;;;6174478;23;20021;-96
2021/03/02 12:13:52;;;;;;;1999.90;999.90;;;10.40;99.90;;;;;;6176768;23;20010;-96
2021/03/02 12:20:24;;;;;;;1999.90;999.90;;;10.70;99.90;;;;;;6178820;23;20029;-96
2021/03/02 12:38:13;;;;;;;1999.90;999.90;;;11.10;99.90;;;;;;6052604;23;20035;-96
2021/03/02 12:41:54;;;;;;;1999.90;999.90;;;11.00;99.90;;;;;;6051784;23;20071;-96
2021/03/02 13:01:40;;;;;;;1999.90;999.90;;;11.60;99.90;;;;;;6262427;23;20031;-96
2021/03/02 13:55:02;;;;;;;1999.90;999.90;;;14.40;99.90;;;;;;6239158;23;20051;-96
2021/03/02 14:01:37;;;;;;;1999.90;999.90;;;14.90;99.90;;;;;;6220435;23;20007;-96
2021/03/02 14:07:51;;;;;;;1999.90;999.90;;;15.40;99.90;;;;;;6226971;23;20016;-96
2021/03/02 14:10:19;;;;;;;1999.90;999.90;;;15.60;99.90;;;;;;6225655;22;20017;-95
2021/03/02 14:13:35;;;;;;;1999.90;999.90;;;15.90;99.90;;;;;;6220324;22;20356;-95
2021/03/02 14:16:32;;;;;;;1999.90;999.90;;;16.20;98.90;;;;;;6229433;23;20016;-96
2021/03/02 14:19:02;;;;;;;1999.90;999.90;;;16.60;98.40;;;;;;6232882;22;20021;-96
2021/03/02 14:21:32;;;;;;;1999.90;999.90;;;16.80;99.00;;;;;;6227408;22;20524;-96
2021/03/02 14:24:29;;;;;;;1999.90;999.90;;;17.00;98.60;;;;;;6227586;22;20416;-96
2021/03/02 14:27:15;;;;;;;1999.90;999.90;;;17.20;96.40;;;;;;6230106;23;20023;-96
2021/03/02 14:29:50;;;;;;;;;;;17.40;93.80;;;;;;6226477;23;20055;-96
2021/03/02 14:32:27;;;;;;;1999.90;999.90;;;17.60;93.80;;;;;;6227763;23;19990;-96
2021/03/02 14:39:04;;;;;;;1999.90;999.90;;;18.20;94.50;;;;;;6238185;22;20058;-96
2021/03/02 14:42:03;;;;;;;1999.90;999.90;;;18.40;90.90;;;;;;6225883;23;20016;-96
2021/03/02 14:45:00;;;;;;;1999.90;999.90;;;18.50;91.10;;;;;;6219990;23;20454;-96
2021/03/02 15:01:58;;;;;;;1999.90;999.90;;;19.90;81.00;;;;;;6237999;23;20027;-96
2021/03/02 19:56:16;;;;;;;1999.90;999.90;;;7.80;99.90;;;;;;6222329;23;20131;-94
2021/03/02 19:59:46;;;;;;;1999.90;999.90;;;7.70;99.90;;;;;;6228725;22;20018;-96
2021/03/02 20:06:29;;;;;;;1999.90;999.90;;;7.60;99.90;;;;;;6221435;23;20030;-96
2021/03/02 20:09:00;;;;;;;1999.90;999.90;;;7.50;99.90;;;;;;6221078;22;20032;-96
2021/03/02 20:16:27;;;;;;;1999.90;999.90;;;7.40;99.90;;;;;;6015405;23;20031;-96
2021/03/02 20:54:04;;;;;;;1999.90;999.90;;;6.70;99.90;;;;;;6228291;23;20059;-96
2021/03/02 21:08:48;;;;;;;1999.90;999.90;;;6.50;99.90;;;;;;5986394;23;20019;-94
2021/03/02 21:15:33;;;;;;;1999.90;999.90;;;6.40;99.90;;;;;;6050779;23;20029;-96
2021/03/02 21:21:58;;;;;;;1999.90;999.90;;;6.30;99.90;;;;;;6162800;23;20027;-96
2021/03/02 21:28:48;;;;;;;1999.90;999.90;;;6.20;99.90;;;;;;5932570;23;20059;-95
2021/03/02 21:45:36;;;;;;;1999.90;999.90;;;6.10;99.90;;;;;;6070331;23;20094;-95
2021/03/02 21:52:10;;;;;;;1999.90;999.90;;;6.00;99.90;;;;;;6015069;23;20017;-95
2021/03/02 21:54:53;;;;;;;1999.90;999.90;;;5.90;99.90;;;;;;6128340;23;20014;-95
2021/03/02 22:19:30;;;;;;;1999.90;999.90;;;5.70;99.90;;;;;;5787118;24;20022;-96
